Data for 01/05/2017

Time Sea-Level Adjusted Pressure Absolute Pressure Temperature Relative Humidity Dew Point   
(mb) (inHg) (mb) (inHg) (C) (F) (%) (C) (F)
00:05 1019 30.09 849 25.07 -19.5 -3.1 67 -24.2 -11.5
00:10 1019 30.09 849 25.07 -19.6 -3.3 66 -24.4 -11.9
00:15 1020 30.12 849 25.07 -19.8 -3.7 69 -24.2 -11.5
00:20 1020 30.12 849 25.07 -19.8 -3.7 69 -24.2 -11.6
00:25 1020 30.12 849 25.07 -19.8 -3.6 67 -24.4 -12
00:30 1019 30.09 849 25.07 -19.4 -3 66 -24.2 -11.6
00:35 1020 30.12 849 25.07 -19.2 -2.5 68 -23.7 -10.7
00:40 1020 30.12 849 25.07 -19.3 -2.7 68 -23.8 -10.8
00:45 1020 30.12 849 25.07 -19.7 -3.4 69 -23.9 -11
00:50 1020 30.12 849 25.07 -19.6 -3.2 70 -23.8 -10.8
00:55 1020 30.12 849 25.07 -19.8 -3.6 68 -24.2 -11.6
01:00 1020 30.12 849 25.07 -20.6 -5.2 73 -24.4 -11.9
01:05 1020 30.12 849 25.07 -20.4 -4.7 72 -24.3 -11.7
01:10 1020 30.12 849 25.07 -20.3 -4.5 73 -24 -11.2
01:15 1020 30.12 849 25.07 -20 -4 72 -23.8 -10.9
01:20 1020 30.12 849 25.07 -19.8 -3.6 71 -23.7 -10.7
01:25 1020 30.12 849 25.07 -19.8 -3.6 71 -23.7 -10.6
01:30 1020 30.12 849 25.07 -19.6 -3.3 71 -23.6 -10.6
01:35 1020 30.12 849 25.07 -19.6 -3.3 70 -23.8 -10.8
01:40 1020 30.12 849 25.07 -19.7 -3.5 69 -24 -11.2
01:45 1020 30.12 849 25.07 -20 -3.9 70 -24.1 -11.3
01:50 1020 30.12 849 25.07 -20.1 -4.2 70 -24.2 -11.5
01:55 1020 30.12 849 25.07 -20.2 -4.4 71 -24.3 -11.7
02:00 1020 30.12 849 25.07 -20.5 -5 72 -24.3 -11.8
02:05 1020 30.12 849 25.07 -20.6 -5 73 -24.3 -11.7
02:10 1020 30.12 849 25.07 -20.5 -4.8 72 -24.2 -11.6
02:15 1020 30.12 849 25.07 -20.6 -5.1 73 -24.3 -11.7
02:20 1020 30.12 849 25.07 -20.7 -5.3 73 -24.3 -11.8
02:25 1020 30.12 849 25.07 -20.7 -5.2 73 -24.3 -11.8
02:30 1020 30.12 849 25.07 -20.6 -5.1 73 -24.3 -11.7
02:35 1020 30.12 849 25.07 -20.6 -5 73 -24.3 -11.7
02:40 1020 30.12 849 25.07 -20.5 -4.9 72 -24.3 -11.7
02:45 1020 30.12 850 25.1 -20.5 -4.9 73 -24.2 -11.5
02:50 1020 30.12 850 25.1 -20.4 -4.8 73 -24.1 -11.3
02:55 1020 30.12 850 25.1 -20.3 -4.5 72 -24 -11.3
03:00 1020 30.12 850 25.1 -20.2 -4.4 73 -23.9 -11
03:05 1020 30.12 850 25.1 -20.1 -4.1 73 -23.8 -10.8
03:10 1021 30.15 850 25.1 -19.9 -3.8 71 -23.8 -10.9
03:15 1021 30.15 850 25.1 -19.8 -3.6 71 -23.8 -10.8
03:20 1021 30.15 850 25.1 -19.7 -3.4 70 -23.8 -10.9
03:25 1021 30.15 850 25.1 -19.6 -3.3 70 -23.8 -10.9
03:30 1021 30.15 850 25.1 -19.6 -3.4 69 -23.9 -11.1
03:35 1021 30.15 850 25.1 -19.7 -3.4 70 -23.8 -10.9
03:40 1021 30.15 850 25.1 -19.7 -3.4 70 -23.8 -10.8
03:45 1021 30.15 850 25.1 -19.7 -3.5 71 -23.7 -10.7
03:50 1021 30.15 850 25.1 -19.6 -3.3 70 -23.8 -10.8
03:55 1021 30.15 850 25.1 -19.5 -3.1 69 -23.8 -10.9
04:00 1021 30.15 850 25.1 -19.4 -3 69 -23.8 -10.9
04:05 1021 30.15 850 25.1 -19.5 -3 69 -23.8 -10.8
04:10 1021 30.15 850 25.1 -19.6 -3.3 70 -23.7 -10.7
04:15 1021 30.15 850 25.1 -19.9 -3.7 71 -23.9 -11
04:20 1021 30.15 850 25.1 -20 -4 72 -23.8 -10.9
04:25 1021 30.15 850 25.1 -20 -4 72 -23.8 -10.9
04:30 1021 30.15 850 25.1 -20 -4 72 -23.8 -10.9
04:35 1021 30.15 850 25.1 -20 -4.1 72 -23.9 -11
04:40 1021 30.15 850 25.1 -20.2 -4.4 73 -23.9 -11.1
04:45 1021 30.15 850 25.1 -20.4 -4.6 73 -24 -11.2
04:50 1021 30.15 850 25.1 -20.5 -4.9 75 -23.9 -11
04:55 1021 30.15 850 25.1 -20.7 -5.3 75 -24 -11.3
05:00 1021 30.15 850 25.1 -21 -5.9 76 -24.2 -11.6
05:05 1021 30.15 850 25.1 -21.5 -6.7 78 -24.3 -11.7
05:10 1021 30.15 850 25.1 -21.6 -6.9 79 -24.3 -11.7
05:15 1021 30.15 850 25.1 -21.5 -6.7 79 -24.2 -11.6
05:20 1021 30.15 850 25.1 -21.4 -6.6 79 -24.1 -11.4
05:25 1021 30.15 850 25.1 -21.3 -6.4 79 -24.1 -11.3
05:30 1021 30.15 850 25.1 -21.2 -6.2 78 -24.1 -11.3
05:35 1021 30.15 850 25.1 -21.3 -6.3 78 -24.1 -11.4
05:40 1021 30.15 850 25.1 -21.2 -6.2 78 -24.2 -11.5
05:45 1021 30.15 850 25.1 -21.5 -6.6 78 -24.3 -11.7
05:50 1021 30.15 850 25.1 -21.7 -7 77 -24.7 -12.4
05:55 1021 30.15 850 25.1 -22 -7.5 78 -24.9 -12.8
06:00 1021 30.15 850 25.1 -22.1 -7.7 78 -25 -13
06:05 1021 30.15 850 25.1 -21.9 -7.5 77 -24.9 -12.8
06:10 1021 30.15 850 25.1 -22 -7.5 78 -24.8 -12.7
06:15 1021 30.15 850 25.1 -21.8 -7.2 77 -24.7 -12.5
06:20 1020 30.12 850 25.1 -21.9 -7.4 77 -24.9 -12.8
06:25 1020 30.12 850 25.1 -21.9 -7.3 77 -24.9 -12.9
06:30 1020 30.12 850 25.1 -21.7 -7.1 76 -24.8 -12.7
06:35 1020 30.12 850 25.1 -21.6 -7 78 -24.6 -12.2
06:40 1020 30.12 850 25.1 -21.6 -6.8 76 -24.8 -12.6
06:45 1020 30.12 850 25.1 -22 -7.7 75 -25.3 -13.5
06:50 1020 30.12 850 25.1 -22.3 -8.2 77 -25.3 -13.5
06:55 1020 30.12 850 25.1 -22.3 -8.1 77 -25.3 -13.6
07:00 1020 30.12 850 25.1 -22.2 -7.9 76 -25.4 -13.6
07:05 1020 30.12 850 25.1 -22 -7.6 77 -25 -13
07:10 1020 30.12 850 25.1 -21.9 -7.5 79 -24.7 -12.4
07:15 1020 30.12 850 25.1 -21.6 -6.9 77 -24.6 -12.2
07:20 1020 30.12 850 25.1 -21.9 -7.3 74 -25.4 -13.7
07:25 1020 30.12 850 25.1 -22.7 -8.8 77 -25.6 -14.1
07:30 1021 30.15 850 25.1 -22.7 -8.9 78 -25.5 -14
07:35 1020 30.12 850 25.1 -22.6 -8.7 79 -25.4 -13.7
07:40 1020 30.12 850 25.1 -22.5 -8.5 78 -25.3 -13.6
07:45 1020 30.12 850 25.1 -22.6 -8.7 75 -25.9 -14.7
07:50 1020 30.12 850 25.1 -23.2 -9.8 77 -26.2 -15.2
07:55 1020 30.12 850 25.1 -23.3 -10 78 -26.2 -15.2
08:00 1020 30.12 850 25.1 -23.2 -9.8 78 -26 -14.9
08:05 1020 30.12 850 25.1 -23 -9.4 77 -26 -14.8
08:10 1020 30.12 850 25.1 -23.2 -9.8 76 -26.4 -15.5
08:15 1020 30.12 850 25.1 -23.3 -9.9 75 -26.5 -15.8
08:20 1020 30.12 850 25.1 -23.4 -10 76 -26.5 -15.7
08:25 1020 30.12 850 25.1 -23.4 -10 76 -26.4 -15.6
08:30 1020 30.12 849 25.07 -23.4 -10 76 -26.5 -15.7
08:35 1020 30.12 850 25.1 -23.3 -10 76 -26.5 -15.6
08:40 1020 30.12 850 25.1 -23.2 -9.8 75 -26.5 -15.8
08:45 1020 30.12 850 25.1 -23.4 -10.1 75 -26.7 -16.1
08:50 1020 30.12 850 25.1 -23.6 -10.4 76 -26.7 -16.1
08:55 1020 30.12 850 25.1 -23.4 -10.1 75 -26.6 -15.9
09:00 1020 30.12 850 25.1 -23.3 -9.9 75 -26.6 -15.8
09:05 1020 30.12 850 25.1 -23.3 -10 75 -26.6 -15.9
09:10 1020 30.12 850 25.1 -23.4 -10.2 75 -26.7 -16
09:15 1020 30.12 850 25.1 -23.5 -10.2 76 -26.7 -16
09:20 1020 30.12 850 25.1 -23.4 -10.1 77 -26.4 -15.5
09:25 1020 30.12 850 25.1 -23.2 -9.8 77 -26.2 -15.2
09:30 1020 30.12 850 25.1 -23 -9.3 73 -26.5 -15.7
09:35 1020 30.12 850 25.1 -23 -9.4 72 -26.7 -16.1
09:40 1020 30.12 850 25.1 -22.7 -8.9 71 -26.6 -15.9
09:45 1020 30.12 850 25.1 -22.6 -8.7 71 -26.5 -15.7
09:50 1021 30.15 850 25.1 -22.3 -8.1 70 -26.4 -15.5
09:55 1021 30.15 850 25.1 -22.1 -7.7 69 -26.3 -15.3
10:00 1021 30.15 850 25.1 -21.9 -7.3 69 -26.1 -15
10:05 1021 30.15 850 25.1 -21.6 -7 66 -26.4 -15.5
10:10 1021 30.15 850 25.1 -21.6 -6.9 68 -25.9 -14.7
10:15 1021 30.15 850 25.1 -20.8 -5.4 66 -25.6 -14
10:20 1021 30.15 850 25.1 -20 -4 63 -25.4 -13.7
10:25 1021 30.15 850 25.1 -19.6 -3.3 63 -25.1 -13.1
10:30 1021 30.15 850 25.1 -19.5 -3.1 63 -24.9 -12.8
10:35 1021 30.15 850 25.1 -19.5 -3.1 64 -24.7 -12.4
10:40 1021 30.15 850 25.1 -19.4 -2.9 64 -24.6 -12.3
10:45 1021 30.15 850 25.1 -19.1 -2.4 63 -24.5 -12.1
10:50 1021 30.15 850 25.1 -19 -2.2 63 -24.4 -12
10:55 1021 30.15 850 25.1 -18.8 -1.9 63 -24.3 -11.7
11:00 1021 30.15 850 25.1 -18.8 -1.8 62 -24.3 -11.8
11:05 1021 30.15 850 25.1 -18.5 -1.3 61 -24.3 -11.8
11:10 1020 30.12 850 25.1 -18.1 -0.6 58 -24.4 -11.9
11:15 1020 30.12 850 25.1 -17.9 -0.3 58 -24.3 -11.8
11:20 1020 30.12 850 25.1 -17.7 0.1 57 -24.4 -11.9
11:25 1020 30.12 849 25.07 -17.9 -0.3 55 -24.9 -12.8
11:30 1020 30.12 849 25.07 -17.9 -0.2 55 -24.8 -12.7
11:35 1020 30.12 849 25.07 -17.5 0.5 54 -24.7 -12.4
11:40 1020 30.12 849 25.07 -17.4 0.7 56 -24.3 -11.7
11:45 1020 30.12 849 25.07 -16.9 1.6 54 -24.2 -11.5
11:50 1020 30.12 849 25.07 -16.6 2.2 53 -24 -11.3
11:55 1020 30.12 849 25.07 -16.5 2.4 53 -24 -11.2
12:00 1020 30.12 849 25.07 -16.2 2.9 52 -23.9 -11.1
12:05 1020 30.12 849 25.07 -15.7 3.8 51 -23.7 -10.7
12:10 1020 30.12 849 25.07 -15.4 4.4 50 -23.6 -10.4
12:15 1020 30.12 849 25.07 -15.2 4.7 49 -23.7 -10.7
12:20 1020 30.12 849 25.07 -15.3 4.4 50 -23.5 -10.3
12:25 1020 30.12 849 25.07 -15.1 4.8 49 -23.6 -10.5
12:30 1020 30.12 849 25.07 -15.3 4.6 49 -23.7 -10.7
12:35 1020 30.12 849 25.07 -15.4 4.2 50 -23.7 -10.7
12:40 1020 30.12 849 25.07 -16.2 2.8 53 -23.7 -10.7
12:45 1020 30.12 849 25.07 -16.6 2.1 55 -23.6 -10.5
12:50 1020 30.12 849 25.07 -16.5 2.4 53 -23.9 -11
12:55 1020 30.12 849 25.07 -15.9 3.3 52 -23.6 -10.5
13:00 1020 30.12 849 25.07 -16 3.2 53 -23.6 -10.4
13:05 1020 30.12 849 25.07 -15.7 3.7 51 -23.7 -10.7
13:10 1019 30.09 849 25.07 -15.5 4 51 -23.5 -10.4
13:15 1019 30.09 849 25.07 -15.5 4.2 50 -23.6 -10.5
13:20 1019 30.09 849 25.07 -15.6 4 52 -23.4 -10.1
13:25 1019 30.09 848 25.04 -16 3.2 52 -23.8 -10.9
13:30 1019 30.09 848 25.04 -16.1 2.9 53 -23.6 -10.5
13:35 1019 30.09 848 25.04 -16.1 3.1 53 -23.5 -10.4
13:40 1019 30.09 848 25.04 -16.2 2.9 53 -23.7 -10.7
13:45 1019 30.09 848 25.04 -16.6 2 54 -24 -11.1
13:50 1019 30.09 848 25.04 -16.5 2.4 52 -24.1 -11.5
13:55 1019 30.09 848 25.04 -16.3 2.6 51 -24.2 -11.5
14:00 1019 30.09 848 25.04 -16.3 2.7 52 -24 -11.2
14:05 1019 30.09 848 25.04 -16 3.2 51 -24 -11.2
14:10 1019 30.09 848 25.04 -15.7 3.7 49 -24.1 -11.3
14:15 1019 30.09 848 25.04 -15.8 3.5 51 -23.8 -10.9
14:20 1019 30.09 848 25.04 -16.1 3.1 53 -23.6 -10.4
14:25 1018 30.06 848 25.04 -15.8 3.5 52 -23.6 -10.4
14:30 1018 30.06 848 25.04 -15.5 4.2 51 -23.4 -10.2
14:35 1018 30.06 848 25.04 -15.2 4.7 49 -23.6 -10.5
14:40 1018 30.06 848 25.04 -14.4 6 47 -23.5 -10.4
14:45 1018 30.06 848 25.04 -14.1 6.6 46 -23.5 -10.2
14:50 1018 30.06 848 25.04 -16.1 2.9 54 -23.5 -10.4
14:55 1018 30.06 848 25.04 -17.3 0.9 57 -23.9 -11
15:00 1018 30.06 848 25.04 -16.8 1.7 55 -23.8 -10.9
15:05 1018 30.06 847 25.01 -16 3.3 53 -23.5 -10.2
15:10 1018 30.06 847 25.01 -16 3.1 53 -23.5 -10.2
15:15 1018 30.06 847 25.01 -15.8 3.5 51 -23.8 -10.8
15:20 1018 30.06 847 25.01 -15.9 3.3 53 -23.3 -10
15:25 1018 30.06 847 25.01 -15.7 3.8 52 -23.4 -10.1
15:30 1018 30.06 847 25.01 -15.2 4.7 51 -23.2 -9.7
15:35 1018 30.06 847 25.01 -15.5 4.2 53 -23 -9.4
15:40 1018 30.06 847 25.01 -15.9 3.3 55 -23.1 -9.5
15:45 1018 30.06 847 25.01 -15.6 3.9 53 -23.2 -9.7
15:50 1018 30.06 847 25.01 -15.6 4 53 -23 -9.4
15:55 1018 30.06 847 25.01 -15.4 4.3 53 -22.9 -9.3
16:00 1018 30.06 847 25.01 -15.4 4.3 53 -23 -9.4
16:05 1018 30.06 847 25.01 -15.4 4.4 52 -23 -9.5
16:10 1018 30.06 847 25.01 -15.3 4.5 52 -23.2 -9.7
16:15 1017 30.03 847 25.01 -15.2 4.7 51 -23.3 -9.9
16:20 1017 30.03 847 25.01 -14.8 5.4 48 -23.6 -10.4
16:25 1017 30.03 847 25.01 -14.9 5.2 49 -23.4 -10.1
16:30 1017 30.03 847 25.01 -15 4.9 50 -23.4 -10.1
16:35 1017 30.03 847 25.01 -15.2 4.7 50 -23.4 -10.2
16:40 1017 30.03 847 25.01 -15.3 4.5 51 -23.3 -10
16:45 1017 30.03 847 25.01 -15.1 4.9 50 -23.4 -10.2
16:50 1017 30.03 847 25.01 -15.1 4.8 52 -22.9 -9.2
16:55 1017 30.03 846 24.98 -15.5 4 53 -23 -9.5
17:00 1017 30.03 846 24.98 -15.6 3.9 54 -23 -9.4
17:05 1017 30.03 846 24.98 -15.9 3.5 55 -23.1 -9.5
17:10 1017 30.03 846 24.98 -16 3.2 54 -23.3 -9.9
17:15 1017 30.03 846 24.98 -16 3.2 55 -23.1 -9.7
17:20 1017 30.03 846 24.98 -16.1 3 56 -22.9 -9.3
17:25 1017 30.03 846 24.98 -16.4 2.6 56 -23.3 -9.9
17:30 1017 30.03 846 24.98 -16.8 1.7 59 -23.2 -9.7
17:35 1017 30.03 846 24.98 -17.2 1 61 -23 -9.5
17:40 1017 30.03 846 24.98 -17 1.5 59 -23.1 -9.6
17:45 1017 30.03 846 24.98 -17.4 0.8 61 -23.1 -9.6
17:50 1017 30.03 846 24.98 -18 -0.3 64 -23.2 -9.8
17:55 1017 30.03 846 24.98 -18.3 -0.9 65 -23.4 -10
18:00 1017 30.03 846 24.98 -18.4 -1.1 65 -23.4 -10.1
18:05 1017 30.03 846 24.98 -18.6 -1.4 66 -23.4 -10.1
18:10 1017 30.03 846 24.98 -18.7 -1.6 67 -23.4 -10.2
18:15 1017 30.03 846 24.98 -18.8 -1.9 68 -23.4 -10.2
18:20 1017 30.03 846 24.98 -19 -2.2 68 -23.5 -10.4
18:25 1017 30.03 846 24.98 -18.9 -2 68 -23.5 -10.2
18:30 1017 30.03 846 24.98 -18.5 -1.3 66 -23.3 -9.9
18:35 1017 30.03 846 24.98 -18.7 -1.6 66 -23.5 -10.3
18:40 1017 30.03 846 24.98 -18.8 -1.9 68 -23.4 -10.1
18:45 1017 30.03 846 24.98 -18.6 -1.5 67 -23.3 -9.9
18:50 1017 30.03 846 24.98 -18.6 -1.4 67 -23.2 -9.8
18:55 1017 30.03 846 24.98 -18.7 -1.7 67 -23.3 -10
19:00 1017 30.03 846 24.98 -19.2 -2.5 69 -23.5 -10.4
19:05 1017 30.03 846 24.98 -19.6 -3.2 69 -23.9 -11
19:10 1017 30.03 846 24.98 -20.1 -4.2 72 -24 -11.2
19:15 1017 30.03 846 24.98 -20.3 -4.6 72 -24.1 -11.4
19:20 1017 30.03 846 24.98 -20.5 -4.9 73 -24.1 -11.5
19:25 1017 30.03 846 24.98 -20.7 -5.2 74 -24.2 -11.5
19:30 1017 30.03 846 24.98 -20.7 -5.2 74 -24.2 -11.6
19:35 1017 30.03 846 24.98 -20.6 -5.1 73 -24.2 -11.6
19:40 1017 30.03 846 24.98 -20.6 -5 72 -24.3 -11.8
19:45 1017 30.03 846 24.98 -20.6 -5.1 73 -24.4 -11.8
19:50 1017 30.03 846 24.98 -20.8 -5.4 73 -24.5 -12.1
19:55 1017 30.03 846 24.98 -21 -5.7 73 -24.6 -12.3
20:00 1017 30.03 846 24.98 -21.4 -6.5 73 -24.9 -12.9
20:05 1017 30.03 846 24.98 -21.8 -7.3 75 -25.1 -13.2
20:10 1017 30.03 846 24.98 -21.8 -7.2 77 -24.8 -12.7
20:15 1017 30.03 846 24.98 -21.7 -7.1 76 -24.9 -12.8
20:20 1017 30.03 846 24.98 -22 -7.6 78 -24.9 -12.8
20:25 1017 30.03 846 24.98 -21.9 -7.4 78 -24.8 -12.6
20:30 1017 30.03 846 24.98 -21.8 -7.2 78 -24.6 -12.3
20:35 1017 30.03 846 24.98 -21.7 -7 76 -24.8 -12.6
20:40 1017 30.03 846 24.98 -21.6 -6.8 75 -24.8 -12.7
20:45 1017 30.03 846 24.98 -21.5 -6.6 76 -24.7 -12.5
20:50 1017 30.03 846 24.98 -21 -5.7 74 -24.5 -12
20:55 1017 30.03 846 24.98 -20.5 -4.9 72 -24.3 -11.8
21:00 1017 30.03 846 24.98 -20.7 -5.2 73 -24.4 -11.9
21:05 1017 30.03 846 24.98 -20.9 -5.7 73 -24.6 -12.3
21:10 1017 30.03 846 24.98 -21.1 -5.9 74 -24.6 -12.2
21:15 1017 30.03 846 24.98 -21 -5.8 73 -24.6 -12.3
21:20 1017 30.03 846 24.98 -21 -5.8 74 -24.6 -12.2
21:25 1017 30.03 846 24.98 -20.8 -5.5 73 -24.5 -12.2
21:30 1017 30.03 846 24.98 -20.8 -5.5 73 -24.5 -12.1
21:35 1017 30.03 846 24.98 -20.5 -4.9 72 -24.3 -11.8
21:40 1017 30.03 846 24.98 -20.3 -4.5 71 -24.3 -11.8
21:45 1017 30.03 846 24.98 -20.4 -4.7 72 -24.3 -11.7
21:50 1017 30.03 846 24.98 -20.5 -4.9 71 -24.4 -11.9
21:55 1017 30.03 846 24.98 -20.5 -4.9 72 -24.2 -11.6
22:00 1017 30.03 846 24.98 -20.3 -4.6 70 -24.5 -12
22:05 1017 30.03 846 24.98 -20.4 -4.7 69 -24.8 -12.6
22:10 1017 30.03 846 24.98 -21.2 -6.1 71 -25 -13.1
22:15 1017 30.03 846 24.98 -21.3 -6.4 74 -24.9 -12.8
22:20 1017 30.03 846 24.98 -21 -5.8 75 -24.4 -11.8
22:25 1017 30.03 846 24.98 -20.2 -4.4 73 -23.8 -10.9
22:30 1017 30.03 846 24.98 -19.8 -3.7 73 -23.5 -10.4
22:35 1017 30.03 846 24.98 -19.4 -3 71 -23.5 -10.3
22:40 1017 30.03 846 24.98 -19.4 -3 71 -23.4 -10.2
22:45 1017 30.03 846 24.98 -19.5 -3.1 71 -23.5 -10.4
22:50 1017 30.03 846 24.98 -19.2 -2.6 70 -23.4 -10.1
22:55 1017 30.03 846 24.98 -19 -2.1 69 -23.3 -9.9
23:00 1017 30.03 846 24.98 -18.8 -1.8 69 -23.2 -9.8
23:05 1017 30.03 846 24.98 -18.7 -1.7 69 -23.2 -9.7
23:10 1017 30.03 846 24.98 -18.9 -2.1 69 -23.3 -9.9
23:15 1017 30.03 846 24.98 -19.1 -2.4 70 -23.2 -9.8
23:20 1017 30.03 846 24.98 -19.1 -2.4 71 -23.2 -9.7
23:25 1017 30.03 846 24.98 -19 -2.1 70 -23.1 -9.6
23:30 1017 30.03 846 24.98 -18.8 -1.9 70 -23 -9.4
23:35 1017 30.03 846 24.98 -18.8 -1.8 70 -22.9 -9.2
23:40 1017 30.03 846 24.98 -18.8 -1.8 71 -22.8 -9.1
23:45 1017 30.03 846 24.98 -18.7 -1.7 71 -22.8 -9.1
23:50 1017 30.03 846 24.98 -18.3 -1 69 -22.8 -9
23:55 1017 30.03 846 24.98 -18 -0.4 67 -22.7 -8.8
24:00 1017 30.03 846 24.98 -18 -0.5 68 -22.6 -8.7